createdAt,value
2023-03-12T00:01:43.356Z,11.65
2023-03-12T00:04:10.211Z,12.07
2023-03-12T00:06:37.650Z,11.35
2023-03-12T00:09:04.763Z,12.02
2023-03-12T00:11:31.525Z,11.75
2023-03-12T00:14:00.233Z,11.05
2023-03-12T00:16:27.884Z,10.50
2023-03-12T00:18:56.022Z,11.25
2023-03-12T00:21:23.360Z,10.45
2023-03-12T00:23:51.324Z,10.88
2023-03-12T00:26:20.631Z,9.63
2023-03-12T00:28:48.878Z,9.77
2023-03-12T00:31:27.909Z,10.65
2023-03-12T00:33:56.195Z,10.20
2023-03-12T00:36:37.501Z,10.32
2023-03-12T00:39:07.864Z,10.43
2023-03-12T00:41:42.167Z,9.40
2023-03-12T00:44:58.539Z,11.32
2023-03-12T00:47:59.877Z,11.20
2023-03-12T00:50:55.313Z,10.55
2023-03-12T00:53:22.398Z,10.93
2023-03-12T00:55:50.606Z,10.65
2023-03-12T00:58:17.811Z,10.60
2023-03-12T01:00:47.156Z,10.32
2023-03-12T01:03:16.713Z,10.05
2023-03-12T01:05:43.903Z,10.95
2023-03-12T01:08:11.156Z,10.40
2023-03-12T01:10:43.292Z,10.40
2023-03-12T01:13:10.279Z,10.15
2023-03-12T01:15:38.592Z,11.60
2023-03-12T01:18:08.026Z,10.80
2023-03-12T01:20:36.491Z,10.13
2023-03-12T01:23:03.563Z,9.85
2023-03-12T01:25:31.466Z,10.00
2023-03-12T01:27:58.647Z,9.55
2023-03-12T01:30:28.288Z,10.38
2023-03-12T01:32:57.638Z,10.00
2023-03-12T01:35:30.883Z,11.13
2023-03-12T01:38:01.196Z,10.80
2023-03-12T01:40:32.896Z,11.52
2023-03-12T01:43:00.255Z,11.43
2023-03-12T01:46:06.891Z,12.30
2023-03-12T01:48:40.595Z,11.55
2023-03-12T01:51:10.804Z,11.65
2023-03-12T01:53:38.950Z,11.20
2023-03-12T01:56:06.928Z,11.48
2023-03-12T01:58:36.031Z,9.50
2023-03-12T02:01:04.210Z,10.45
2023-03-12T02:03:33.525Z,9.95
2023-03-12T02:06:08.776Z,9.38
2023-03-12T02:08:42.188Z,10.48
2023-03-12T02:11:10.455Z,9.95
2023-03-12T02:13:37.602Z,9.93
2023-03-12T02:16:04.709Z,11.77
2023-03-12T02:18:31.694Z,11.10
2023-03-12T02:21:21.964Z,11.10
2023-03-12T02:23:57.478Z,11.30
2023-03-12T02:26:25.654Z,10.82
2023-03-12T02:28:54.596Z,10.60
2023-03-12T02:31:24.881Z,10.38
2023-03-12T02:33:53.172Z,11.40
2023-03-12T02:36:20.607Z,11.18
2023-03-12T02:38:51.178Z,9.65
2023-03-12T02:41:22.614Z,9.65
2023-03-12T02:44:33.684Z,9.07
2023-03-12T02:47:01.854Z,10.63
2023-03-12T02:49:31.444Z,10.88
2023-03-12T02:51:58.331Z,10.57
2023-03-12T02:54:26.901Z,9.77
2023-03-12T02:56:53.839Z,9.57
2023-03-12T02:59:22.085Z,10.10
2023-03-12T03:01:54.581Z,9.45
2023-03-12T03:04:21.505Z,10.38
2023-03-12T03:06:48.674Z,9.77
2023-03-12T03:09:15.546Z,10.05
2023-03-12T03:11:42.436Z,10.18
2023-03-12T03:14:10.220Z,10.43
2023-03-12T03:16:37.583Z,10.43
2023-03-12T03:19:05.140Z,10.15
2023-03-12T03:21:32.673Z,9.82
2023-03-12T03:24:01.187Z,9.82
2023-03-12T03:26:27.998Z,10.25
2023-03-12T03:28:55.071Z,11.20
2023-03-12T03:31:22.210Z,10.20
2023-03-12T03:33:49.576Z,9.95
2023-03-12T03:36:16.729Z,9.45
2023-03-12T03:38:49.114Z,9.90
2023-03-12T03:41:17.667Z,10.98
2023-03-12T03:43:46.364Z,11.35
2023-03-12T03:46:14.090Z,10.02
2023-03-12T03:48:42.063Z,9.52
2023-03-12T03:51:10.952Z,10.52
2023-03-12T03:53:39.070Z,10.02
2023-03-12T03:56:08.213Z,10.48
2023-03-12T03:58:35.007Z,9.07
2023-03-12T04:01:04.677Z,9.93
2023-03-12T04:03:31.794Z,10.53
2023-03-12T04:06:04.127Z,9.85
2023-03-12T04:08:32.932Z,11.88
2023-03-12T04:10:59.684Z,9.13
2023-03-12T04:13:26.472Z,10.05
2023-03-12T04:15:54.238Z,9.65
2023-03-12T04:18:21.089Z,10.90
2023-03-12T04:20:48.235Z,10.52
2023-03-12T04:23:16.422Z,11.13
2023-03-12T04:25:43.227Z,11.48
2023-03-12T04:28:10.119Z,9.63
2023-03-12T04:30:38.293Z,10.75
2023-03-12T04:33:06.874Z,10.50
2023-03-12T04:35:33.803Z,11.13
2023-03-12T04:38:04.154Z,9.27
2023-03-12T04:40:31.331Z,9.07
2023-03-12T04:42:58.240Z,8.80
2023-03-12T04:45:24.961Z,9.57
2023-03-12T04:47:51.712Z,9.40
2023-03-12T04:50:19.899Z,10.13
2023-03-12T04:52:46.696Z,9.82
2023-03-12T04:55:13.517Z,9.57
2023-03-12T04:57:40.293Z,9.43
2023-03-12T05:00:13.367Z,10.13
2023-03-12T05:02:42.077Z,8.77
2023-03-12T05:05:10.707Z,11.40
2023-03-12T05:07:37.456Z,10.35
2023-03-12T05:10:04.598Z,9.65
2023-03-12T05:12:31.325Z,8.95
2023-03-12T05:14:58.197Z,10.75
2023-03-12T05:17:24.924Z,8.73
2023-03-12T05:19:51.837Z,9.25
2023-03-12T05:22:19.154Z,9.25
2023-03-12T05:24:45.921Z,9.07
2023-03-12T05:27:13.022Z,9.23
2023-03-12T05:29:41.484Z,8.85
2023-03-12T05:32:09.111Z,9.38
2023-03-12T05:34:35.922Z,10.23
2023-03-12T05:37:02.746Z,9.85
2023-03-12T05:39:29.538Z,9.02
2023-03-12T05:41:57.289Z,9.40
2023-03-12T05:44:25.185Z,8.57
2023-03-12T05:46:53.537Z,8.80
2023-03-12T05:49:21.259Z,8.23
2023-03-12T05:51:49.087Z,8.30
2023-03-12T05:54:17.081Z,7.72
2023-03-12T05:56:43.829Z,7.60
2023-03-12T05:59:10.706Z,7.47
2023-03-12T06:01:37.898Z,8.85
2023-03-12T06:04:04.806Z,9.80
2023-03-12T06:06:35.765Z,8.90
2023-03-12T06:09:04.041Z,8.93
2023-03-12T06:11:32.319Z,10.18
2023-03-12T06:14:02.127Z,8.38
2023-03-12T06:16:29.976Z,9.55
2023-03-12T06:19:02.122Z,7.88
2023-03-12T06:21:34.647Z,9.50
2023-03-12T06:24:01.658Z,8.52
2023-03-12T06:26:28.652Z,8.50
2023-03-12T06:28:57.384Z,9.75
2023-03-12T06:31:24.677Z,10.85
2023-03-12T06:33:53.730Z,9.18
2023-03-12T06:36:23.072Z,8.40
2023-03-12T06:38:50.323Z,9.45
2023-03-12T06:41:19.584Z,8.90
2023-03-12T06:43:49.811Z,10.30
2023-03-12T06:46:21.775Z,9.32
2023-03-12T06:48:48.874Z,8.65
2023-03-12T06:51:17.178Z,8.63
2023-03-12T06:53:45.579Z,9.25
2023-03-12T06:56:13.434Z,9.63
2023-03-12T06:58:41.445Z,8.48
2023-03-12T07:01:08.467Z,9.30
2023-03-12T07:03:36.370Z,9.02
2023-03-12T07:06:03.607Z,9.18
2023-03-12T07:08:31.285Z,8.60
2023-03-12T07:11:01.740Z,8.27
2023-03-12T07:15:56.396Z,7.82
2023-03-12T07:18:23.406Z,7.40
2023-03-12T07:20:50.277Z,8.95
2023-03-12T07:23:17.077Z,7.38
2023-03-12T07:25:44.393Z,7.50
2023-03-12T07:28:12.195Z,7.70
2023-03-12T07:30:39.275Z,8.15
2023-03-12T07:33:11.619Z,8.48
2023-03-12T07:35:39.834Z,7.20
2023-03-12T07:38:07.670Z,7.55
2023-03-12T07:40:35.667Z,6.28
2023-03-12T07:43:03.618Z,7.28
2023-03-12T07:45:31.779Z,6.63
2023-03-12T07:47:58.676Z,6.15
2023-03-12T07:50:25.506Z,6.50
2023-03-12T07:52:52.753Z,6.45
2023-03-12T07:55:19.765Z,6.55
2023-03-12T07:57:48.507Z,6.95
2023-03-12T08:00:17.205Z,6.75
2023-03-12T08:02:44.419Z,7.28
2023-03-12T08:05:11.486Z,7.78
2023-03-12T08:07:38.266Z,5.55
2023-03-12T08:10:07.696Z,7.10
2023-03-12T08:12:34.948Z,6.15
2023-03-12T08:15:01.696Z,6.50
2023-03-12T08:17:28.388Z,5.88
2023-03-12T08:19:55.146Z,6.70
2023-03-12T08:22:21.878Z,6.38
2023-03-12T08:24:48.937Z,6.22
2023-03-12T08:27:15.710Z,5.80
2023-03-12T08:29:42.741Z,6.55
2023-03-12T08:32:14.257Z,5.88
2023-03-12T08:34:41.024Z,7.03
2023-03-12T08:37:07.864Z,6.13
2023-03-12T08:39:34.722Z,5.80
2023-03-12T08:42:16.554Z,7.00
2023-03-12T08:45:33.261Z,5.82
2023-03-12T08:48:29.810Z,5.68
2023-03-12T08:51:17.592Z,6.53
2023-03-12T08:53:45.239Z,6.30
2023-03-12T08:56:12.030Z,6.03
2023-03-12T08:58:39.081Z,7.18
2023-03-12T09:01:14.573Z,6.18
2023-03-12T09:03:41.653Z,6.20
2023-03-12T09:06:14.773Z,5.15
2023-03-12T09:08:47.744Z,5.78
2023-03-12T09:11:15.260Z,4.65
2023-03-12T09:14:08.199Z,4.93
2023-03-12T09:16:29.833Z,5.75
2023-03-12T09:18:57.485Z,5.00
2023-03-12T09:21:24.362Z,4.50
2023-03-12T09:23:51.095Z,4.57
2023-03-12T09:26:17.798Z,5.38
2023-03-12T09:28:44.989Z,4.72
2023-03-12T09:31:12.470Z,4.82
2023-03-12T09:33:39.391Z,4.55
2023-03-12T09:36:06.607Z,5.18
2023-03-12T09:38:35.424Z,4.93
2023-03-12T09:41:05.352Z,4.95
2023-03-12T09:43:41.122Z,4.75
2023-03-12T09:46:24.002Z,4.47
2023-03-12T09:48:55.696Z,4.68
2023-03-12T09:51:30.743Z,4.55
2023-03-12T09:54:04.223Z,3.78
2023-03-12T09:56:32.369Z,4.45
2023-03-12T09:58:59.232Z,4.15
2023-03-12T10:01:40.708Z,6.45
2023-03-12T10:04:28.815Z,7.45
2023-03-12T10:07:11.458Z,7.25
2023-03-12T10:10:01.742Z,5.03
2023-03-12T10:12:51.280Z,4.78
2023-03-12T10:15:29.971Z,4.40
2023-03-12T10:18:38.591Z,4.47
2023-03-12T10:21:45.990Z,3.25
2023-03-12T10:24:31.634Z,3.80
2023-03-12T10:26:59.560Z,4.00
2023-03-12T10:29:35.421Z,4.18
2023-03-12T10:32:11.170Z,4.47
2023-03-12T10:34:57.654Z,4.38
2023-03-12T10:37:39.159Z,3.75
2023-03-12T10:40:06.611Z,4.53
2023-03-12T10:42:33.305Z,3.50
2023-03-12T10:45:09.267Z,4.25
2023-03-12T10:47:41.329Z,3.58
2023-03-12T10:50:22.437Z,4.03
2023-03-12T10:52:53.046Z,4.78
2023-03-12T10:55:21.869Z,3.28
2023-03-12T10:57:49.570Z,5.13
2023-03-12T11:00:24.201Z,5.05
2023-03-12T11:03:05.759Z,5.32
2023-03-12T11:05:45.687Z,4.28
2023-03-12T11:08:35.232Z,3.67
2023-03-12T11:11:06.297Z,3.83
2023-03-12T11:13:41.840Z,4.25
2023-03-12T11:16:17.685Z,4.18
2023-03-12T11:19:04.518Z,3.72
2023-03-12T11:21:33.641Z,3.63
2023-03-12T11:24:00.330Z,3.50
2023-03-12T11:27:02.404Z,4.20
2023-03-12T11:29:43.583Z,4.20
2023-03-12T11:32:25.721Z,3.72
2023-03-12T11:34:56.453Z,3.70
2023-03-12T11:38:00.804Z,3.10
2023-03-12T11:40:51.396Z,3.65
2023-03-12T11:43:43.771Z,3.70
2023-03-12T11:46:42.629Z,3.75
2023-03-12T11:49:22.612Z,3.90
2023-03-12T11:52:01.788Z,5.45
2023-03-12T12:02:54.929Z,4.43
2023-03-12T12:05:42.043Z,4.78
2023-03-12T12:08:18.180Z,3.95
2023-03-12T12:11:00.099Z,4.47
2023-03-12T12:13:35.932Z,3.60
2023-03-12T12:16:29.114Z,4.78
2023-03-12T12:19:37.166Z,4.40
2023-03-12T12:22:49.071Z,4.15
2023-03-12T12:25:59.565Z,3.25
2023-03-12T12:28:41.337Z,4.47
2023-03-12T12:31:22.196Z,3.33
2023-03-12T12:34:09.222Z,5.05
2023-03-12T12:36:36.744Z,3.30
2023-03-12T12:39:09.162Z,3.28
2023-03-12T12:41:51.748Z,4.05
2023-03-12T12:44:25.560Z,3.95
2023-03-12T12:47:06.140Z,3.55
2023-03-12T12:49:47.194Z,3.08
2023-03-12T12:52:21.086Z,3.67
2023-03-12T12:55:11.856Z,3.47
2023-03-12T13:00:29.987Z,2.92
2023-03-12T13:02:57.973Z,3.80
2023-03-12T13:05:48.043Z,3.55
2023-03-12T13:08:36.959Z,2.90
2023-03-12T13:11:24.942Z,3.33
2023-03-12T13:14:13.529Z,3.63
2023-03-12T13:16:43.254Z,3.85
2023-03-12T13:19:18.729Z,2.90
2023-03-12T13:22:02.235Z,3.05
2023-03-12T13:24:42.955Z,3.28
2023-03-12T13:29:42.217Z,3.97
2023-03-12T13:32:32.955Z,3.22
2023-03-12T13:37:51.471Z,3.42
2023-03-12T13:40:30.461Z,4.13
2023-03-12T13:43:12.084Z,2.90
2023-03-12T13:45:48.515Z,3.90
2023-03-12T13:48:19.909Z,3.95
2023-03-12T13:50:57.144Z,4.47
2023-03-12T13:53:27.957Z,4.95
2023-03-12T13:56:14.260Z,4.30
2023-03-12T13:58:48.065Z,4.22
2023-03-12T14:01:19.816Z,3.70
2023-03-12T14:03:55.115Z,3.60
2023-03-12T14:06:24.572Z,38.65
2023-03-12T14:09:40.644Z,5.97
2023-03-12T14:12:20.493Z,3.63
2023-03-12T14:15:02.506Z,6.20
2023-03-12T14:17:32.617Z,3.65
2023-03-12T14:20:10.681Z,3.70
2023-03-12T14:22:41.474Z,3.10
2023-03-12T14:25:22.560Z,2.95
2023-03-12T14:27:49.710Z,2.72
2023-03-12T14:30:55.171Z,3.30
2023-03-12T14:33:23.594Z,3.28
2023-03-12T14:35:59.208Z,3.30
2023-03-12T14:38:44.096Z,2.53
2023-03-12T14:41:27.914Z,2.50
2023-03-12T14:44:03.122Z,2.63
2023-03-12T14:46:30.265Z,3.00
2023-03-12T14:48:57.400Z,3.65
2023-03-12T14:51:26.782Z,4.65
2023-03-12T14:53:54.377Z,3.38
2023-03-12T14:56:30.906Z,3.90
2023-03-12T14:59:00.714Z,3.63
2023-03-12T15:01:33.488Z,4.05
2023-03-12T15:04:06.731Z,6.72
2023-03-12T15:07:00.235Z,4.93
2023-03-12T15:09:29.737Z,3.92
2023-03-12T15:12:05.101Z,2.83
2023-03-12T15:14:37.936Z,3.70
2023-03-12T15:17:06.573Z,3.30
2023-03-12T15:19:39.572Z,3.13
2023-03-12T15:22:30.542Z,3.28
2023-03-12T15:25:20.713Z,3.75
2023-03-12T15:27:47.893Z,6.80
2023-03-12T15:30:26.386Z,5.97
2023-03-12T15:33:21.807Z,3.25
2023-03-12T15:36:20.616Z,4.65
2023-03-12T15:38:57.399Z,4.75
2023-03-12T15:41:47.905Z,3.95
2023-03-12T15:44:25.963Z,4.72
2023-03-12T15:47:11.925Z,5.25
2023-03-12T15:49:40.214Z,5.00
2023-03-12T15:52:26.686Z,5.00
2023-03-12T15:55:27.783Z,5.57
2023-03-12T15:57:55.994Z,4.40
2023-03-12T16:00:41.818Z,4.88
2023-03-12T16:03:18.923Z,4.45
2023-03-12T16:05:46.335Z,4.70
2023-03-12T16:08:20.679Z,4.85
2023-03-12T16:10:48.820Z,6.05
2023-03-12T16:13:17.488Z,6.47
2023-03-12T16:15:47.426Z,7.35
2023-03-12T16:18:16.476Z,6.85
2023-03-12T16:20:44.165Z,6.95
2023-03-12T16:23:11.530Z,8.75
2023-03-12T16:25:39.236Z,8.23
2023-03-12T16:28:07.328Z,14.23
2023-03-12T16:30:36.876Z,9.27
2023-03-12T16:33:09.682Z,10.90
2023-03-12T16:35:37.058Z,11.25
2023-03-12T16:38:04.466Z,10.18
2023-03-12T16:40:34.134Z,9.45
2023-03-12T16:43:03.606Z,10.48
2023-03-12T16:45:31.977Z,10.48
2023-03-12T16:48:00.933Z,9.70
2023-03-12T16:50:28.693Z,9.57
2023-03-12T16:52:58.137Z,9.35
2023-03-12T16:55:29.413Z,10.23
2023-03-12T16:58:00.760Z,11.23
2023-03-12T17:00:29.346Z,16.85
2023-03-12T17:03:00.761Z,16.75
2023-03-12T17:05:29.418Z,17.77
2023-03-12T17:07:57.045Z,18.60
2023-03-12T17:10:24.810Z,19.25
2023-03-12T17:12:52.432Z,12.93
2023-03-12T17:15:21.250Z,15.60
2023-03-12T17:17:49.393Z,14.98
2023-03-12T17:20:17.395Z,14.13
2023-03-12T17:22:44.502Z,11.95
2023-03-12T17:25:31.230Z,11.60
2023-03-12T17:27:59.086Z,9.88
2023-03-12T17:30:27.570Z,9.10
2023-03-12T17:33:00.806Z,9.73
2023-03-12T17:35:28.024Z,11.20
2023-03-12T17:37:55.185Z,10.80
2023-03-12T17:40:22.289Z,9.55
2023-03-12T17:42:49.400Z,13.60
2023-03-12T17:45:16.568Z,14.73
2023-03-12T17:47:43.866Z,23.45
2023-03-12T17:50:11.432Z,33.30
2023-03-12T17:52:38.572Z,26.13
2023-03-12T17:55:06.212Z,40.63
2023-03-12T17:57:33.343Z,26.00
2023-03-12T18:00:00.495Z,29.27
2023-03-12T18:02:27.656Z,27.00
2023-03-12T18:04:54.823Z,32.38
2023-03-12T18:07:22.022Z,40.30
2023-03-12T18:09:49.296Z,41.55
2023-03-12T18:12:16.490Z,25.35
2023-03-12T18:14:43.634Z,21.98
2023-03-12T18:17:10.728Z,17.13
2023-03-12T18:19:37.856Z,21.33
2023-03-12T18:22:07.090Z,26.23
2023-03-12T18:24:34.418Z,28.45
2023-03-12T18:27:01.618Z,19.25
2023-03-12T18:29:28.714Z,15.85
2023-03-12T18:31:55.833Z,14.45
2023-03-12T18:34:23.579Z,26.17
2023-03-12T18:36:50.783Z,30.35
2023-03-12T18:39:18.801Z,22.55
2023-03-12T18:41:51.657Z,21.17
2023-03-12T18:44:21.811Z,24.60
2023-03-12T18:46:53.997Z,26.42
2023-03-12T18:49:21.547Z,28.92
2023-03-12T18:51:53.360Z,25.42
2023-03-12T18:54:20.456Z,23.20
2023-03-12T18:56:47.750Z,21.23
2023-03-12T18:59:14.992Z,17.73
2023-03-12T19:01:42.690Z,13.15
2023-03-12T19:04:10.916Z,12.50
2023-03-12T19:06:50.292Z,11.98
2023-03-12T19:09:18.486Z,9.77
2023-03-12T19:11:47.174Z,11.07
2023-03-12T19:14:14.379Z,10.82
2023-03-12T19:16:41.671Z,10.88
2023-03-12T19:19:08.913Z,11.30
2023-03-12T19:21:36.041Z,11.45
2023-03-12T19:24:03.215Z,10.50
2023-03-12T19:26:30.340Z,10.88
2023-03-12T19:28:57.467Z,11.18
2023-03-12T19:31:25.471Z,11.75
2023-03-12T19:33:52.837Z,11.77
2023-03-12T19:36:20.020Z,11.77
2023-03-12T19:38:47.085Z,11.85
2023-03-12T19:41:14.245Z,14.85
2023-03-12T19:43:41.351Z,12.43
2023-03-12T19:46:08.838Z,11.27
2023-03-12T19:48:36.058Z,11.02
2023-03-12T19:51:09.867Z,10.98
2023-03-12T19:53:37.397Z,9.75
2023-03-12T19:56:04.853Z,10.27
2023-03-12T19:58:32.126Z,10.52
2023-03-12T20:01:02.485Z,10.40
2023-03-12T20:03:30.785Z,10.98
2023-03-12T20:05:57.933Z,9.20
2023-03-12T20:08:30.304Z,10.10
2023-03-12T20:11:04.869Z,9.32
2023-03-12T20:13:32.321Z,9.80
2023-03-12T20:15:59.605Z,10.45
2023-03-12T20:18:26.719Z,10.70
2023-03-12T20:20:53.875Z,11.00
2023-03-12T20:23:21.062Z,11.38
2023-03-12T20:25:49.994Z,11.32
2023-03-12T20:28:18.934Z,11.23
2023-03-12T20:30:46.202Z,11.15
2023-03-12T20:33:13.654Z,12.60
2023-03-12T20:35:40.959Z,11.95
2023-03-12T20:38:08.149Z,12.07
2023-03-12T20:40:35.399Z,12.20
2023-03-12T20:43:04.783Z,12.13
2023-03-12T20:45:32.693Z,11.45
2023-03-12T20:47:59.939Z,12.07
2023-03-12T20:50:27.879Z,12.73
2023-03-12T20:52:55.237Z,11.98
2023-03-12T20:55:22.610Z,12.90
2023-03-12T20:57:49.906Z,11.02
2023-03-12T21:00:17.371Z,10.00
2023-03-12T21:02:44.591Z,10.85
2023-03-12T21:05:13.665Z,10.38
2023-03-12T21:07:42.104Z,11.02
2023-03-12T21:10:09.758Z,10.75
2023-03-12T21:12:39.683Z,11.65
2023-03-12T21:15:12.574Z,12.35
2023-03-12T21:17:40.645Z,11.25
2023-03-12T21:20:17.325Z,10.55
2023-03-12T21:22:46.906Z,12.43
2023-03-12T21:25:14.181Z,11.98
2023-03-12T21:27:50.656Z,10.57
2023-03-12T21:30:18.918Z,11.00
2023-03-12T21:32:46.489Z,12.10
2023-03-12T21:35:13.767Z,12.02
2023-03-12T21:37:41.111Z,13.07
2023-03-12T21:40:09.181Z,13.32
2023-03-12T21:42:36.434Z,15.45
2023-03-12T21:45:03.639Z,14.63
2023-03-12T21:47:30.827Z,15.57
2023-03-12T21:49:58.060Z,18.80
2023-03-12T21:52:25.323Z,18.08
2023-03-12T21:54:52.439Z,19.73
2023-03-12T21:57:19.661Z,17.98
2023-03-12T21:59:46.872Z,15.40
2023-03-12T22:02:14.668Z,13.00
2023-03-12T22:04:41.830Z,15.20
2023-03-12T22:07:09.059Z,13.00
2023-03-12T22:09:36.168Z,14.57
2023-03-12T22:12:03.533Z,13.27
2023-03-12T22:14:30.649Z,13.02
2023-03-12T22:16:58.153Z,16.55
2023-03-12T22:19:25.376Z,17.38
2023-03-12T22:21:52.515Z,19.20
2023-03-12T22:24:19.672Z,20.90
2023-03-12T22:26:47.279Z,19.27
2023-03-12T22:29:14.429Z,20.17
2023-03-12T22:31:44.151Z,21.27
2023-03-12T22:34:11.562Z,19.23
2023-03-12T22:36:39.451Z,18.70
2023-03-12T22:39:06.645Z,17.73
2023-03-12T22:41:33.989Z,14.40
2023-03-12T22:44:06.194Z,13.80
2023-03-12T22:46:33.563Z,14.07
2023-03-12T22:49:01.616Z,12.77
2023-03-12T22:51:30.053Z,12.02
2023-03-12T22:53:57.170Z,12.13
2023-03-12T22:56:24.377Z,11.80
2023-03-12T22:58:51.545Z,11.57
2023-03-12T23:01:20.317Z,12.70
2023-03-12T23:03:48.086Z,14.35
2023-03-12T23:06:16.825Z,15.25
2023-03-12T23:08:46.311Z,14.57
2023-03-12T23:13:44.423Z,11.60
2023-03-12T23:16:13.735Z,11.88
2023-03-12T23:18:43.004Z,12.70
2023-03-12T23:21:11.530Z,11.35
2023-03-12T23:23:39.626Z,11.77
2023-03-12T23:26:06.928Z,12.75
2023-03-12T23:28:34.157Z,14.40
2023-03-12T23:31:02.657Z,14.60
2023-03-12T23:33:32.131Z,13.20
2023-03-12T23:36:00.576Z,13.20
2023-03-12T23:38:28.074Z,13.00
2023-03-12T23:40:59.932Z,14.80
2023-03-12T23:43:27.072Z,11.82
2023-03-12T23:45:58.600Z,13.10
2023-03-12T23:48:26.703Z,12.65
2023-03-12T23:50:54.087Z,11.65
2023-03-12T23:53:21.631Z,11.02
2023-03-12T23:55:56.440Z,11.30
2023-03-12T23:58:24.307Z,10.05
